Weather reports worldwide

Advertisment
Goteborg, Sweden (2513): temperature: 01.07.2020 21:00:00 - 07.07.2020 21:00:00 (CEST)Goteborg, Sweden (2513): wind speed & gusts: 01.07.2020 21:00:00 - 07.07.2020 21:00:00 (CEST)Goteborg, Sweden (2513): wind direction: 01.07.2020 21:00:00 - 07.07.2020 21:00:00 (CEST)Goteborg, Sweden (2513): reduced air pressure: 01.07.2020 21:00:00 - 07.07.2020 21:00:00 (CEST)Goteborg, Sweden (2513): visibility: 01.07.2020 21:00:00 - 07.07.2020 21:00:00 (CEST)Goteborg, Sweden (2513): precipitation: 01.07.2020 21:00:00 - 07.07.2020 21:00:00 (CEST)
Date & Time tt [°C] ff [km/h] ff [kn] fx [km/h] fx [kn] dd ppp [hPa] vv [km] rr [mm]
07.07.2020 21:00:00 13,2 23 13 41 22 WSW 1006,4 23 0,0
07.07.2020 20:00:00 13,5 22 12 48 26 WSW 1006,4 26 0,0
07.07.2020 19:00:00 13,8 27 14 45 24 W 1006,8 26 0,5
07.07.2020 18:00:00 14,1 23 12 42 23 WSW 1006,9 31 0,0
07.07.2020 17:00:00 14,0 23 12 41 22 WSW 1007,4 30 0,4
07.07.2020 16:00:00 13,7 23 12 49 26 WSW 1007,8 8 0,0
07.07.2020 15:00:00 16,4 22 12 42 23 WSW 1007,6 18 0,0
07.07.2020 14:00:00 15,6 24 13 47 26 WSW 1007,7 17 0,0
07.07.2020 13:00:00 15,6 28 15 46 25 WSW 1007,8 26 0,0
07.07.2020 12:00:00 15,3 24 13 42 23 WSW 1007,9 24 0,0
07.07.2020 11:00:00 15,0 23 12 44 24 WSW 1008,2 26 0,0
07.07.2020 10:00:00 14,5 22 12 42 23 W 1007,9 25 0,0
07.07.2020 09:00:00 14,5 21 12 44 24 W 1007,8 17 0,0
07.07.2020 08:00:00 14,1 20 11 46 25 W 1007,8 20 0,0
07.07.2020 07:00:00 13,6 24 13 49 26 W 1007,4 19 0,0
07.07.2020 06:00:00 13,2 15 8 40 21 W 1007,1 23 0,0
07.07.2020 05:00:00 12,5 17 9 34 18 W 1006,7 27 0,0
07.07.2020 04:00:00 12,9 16 9 37 20 W 1006,1 32 0,0
07.07.2020 03:00:00 13,5 17 9 36 20 WNW 1005,1 32 0,0
07.07.2020 02:00:00 14,3 21 11 45 24 W 1004,1 24 0,0
07.07.2020 01:00:00 14,7 19 11 44 24 W 1003,4 22 0,0
07.07.2020 00:00:00 15,0 18 10 37 20 W 1002,5 19 0,0
06.07.2020 23:00:00 15,2 15 8 30 16 W 1001,6 17 0,0
06.07.2020 22:00:00 15,1 14 7 28 15 W 1000,6 15 0,0
06.07.2020 21:00:00 15,5 11 6 35 19 W 999,5 32 0,1
06.07.2020 20:00:00 16,0 16 9 43 23 W 998,1 15 0,0
06.07.2020 19:00:00 16,3 24 13 46 25 W 996,5 13 0,0
06.07.2020 18:00:00 16,0 22 12 45 24 W 995,5 10 0,0
06.07.2020 17:00:00 15,6 27 14 51 27 W 994,6 6 0,0
06.07.2020 16:00:00 15,0 30 16 61 33 WSW 993,8 9 2,3
06.07.2020 15:00:00 13,2 21 12 58 31 SW 993,4 6 1,3
06.07.2020 14:00:00 13,5 17 9 44 24 SW 994,1 7 0,9
06.07.2020 13:00:00 14,5 22 12 46 25 SW 994,4 22 3,3
06.07.2020 12:00:00 15,5 22 12 50 27 SW 994,2 25 0,0
06.07.2020 11:00:00 15,2 26 14 50 27 SW 994,5 28 0,0
06.07.2020 10:00:00 14,7 21 11 51 27 SW 994,5 23 0,0
06.07.2020 09:00:00 13,6 20 11 43 23 SW 994,4 20 0,1
06.07.2020 08:00:00 13,0 19 10 40 22 SW 994,6 11 0,6
06.07.2020 07:00:00 13,3 16 9 48 26 SW 994,4 11 0,3
06.07.2020 06:00:00 13,6 21 12 42 23 SW 994,3 17 0,0
06.07.2020 05:00:00 13,4 17 9 40 22 SW 994,6 16 0,0
06.07.2020 04:00:00 13,1 18 10 40 22 SW 994,9 20 0,7
06.07.2020 03:00:00 13,2 16 9 51 27 SW 995,3 16 0,0
06.07.2020 02:00:00 13,8 23 12 46 25 SW 995,7 18 0,0
06.07.2020 01:00:00 13,8 21 11 44 24 SW 996,0 17 0,7
06.07.2020 00:00:00 13,2 17 9 41 22 SW 996,3 5 0,6
05.07.2020 23:00:00 14,5 21 11 46 25 SW 996,6 20 0,0
05.07.2020 22:00:00 14,9 27 15 51 27 SW 996,3 17 0,1
05.07.2020 21:00:00 15,3 25 14 56 31 SW 995,7 17 0,0
05.07.2020 20:00:00 15,2 25 14 48 26 WSW 995,3 3,7 1,5
05.07.2020 19:00:00 16,0 19 11 46 25 SW 995,0 13 1,2
05.07.2020 18:00:00 16,5 19 10 54 29 SW 994,7 8 0,1
05.07.2020 17:00:00 18,4 22 12 53 28 SW 994,2 16 0,0
05.07.2020 16:00:00 19,3 24 13 56 30 SW 993,8 15 0,0
05.07.2020 15:00:00 18,7 24 13 45 24 SSW 993,1 18 0,0
05.07.2020 14:00:00 17,6 19 10 49 26 SSW 993,1 23 0,6
05.07.2020 13:00:00 17,5 21 11 64 34 SSW 992,6 16 0,0
05.07.2020 12:00:00 17,6 26 14 59 32 SSW 992,8 18 0,1
05.07.2020 11:00:00 17,1 20 11 45 24 S 993,4 8 5,1
05.07.2020 10:00:00 16,6 18 10 39 21 S 994,8 2,4 3,7
05.07.2020 09:00:00 16,3 16 9 33 18 SSW 996,0 2,9 1,2
05.07.2020 08:00:00 16,1 9 5 24 13 SSW 997,3 8 0,2
05.07.2020 07:00:00 15,1 5 3 13 7 SSE 998,5 3,0 1,5
05.07.2020 06:00:00 14,6 4 2 9 5 SE 999,8 1,9 0,8
05.07.2020 05:00:00 14,8 4 2 11 6 S 1000,5 4,0 0,0
05.07.2020 04:00:00 14,9 4 2 13 7 S 1001,4 20 0,0
05.07.2020 03:00:00 15,0 5 3 17 9 SW 1001,9 11 1,0
05.07.2020 02:00:00 15,5 7 4 19 10 SW 1002,7 34 0,0
05.07.2020 01:00:00 15,4 7 4 16 9 SW 1002,8 28 0,0
05.07.2020 00:00:00 15,4 5 3 10 5 SW 1003,1 22 0,0
04.07.2020 23:00:00 15,4 5 3 13 7 SSW 1003,0 25 0,0
04.07.2020 22:00:00 15,7 6 3 16 9 SW 1003,3 25 0,0
04.07.2020 21:00:00 16,1 8 4 22 12 WSW 1003,0 27 0,0
04.07.2020 20:00:00 16,8 10 6 22 12 WSW 1003,0 32 0,0
04.07.2020 19:00:00 17,0 11 6 23 12 WSW 1003,0 43 0,0
04.07.2020 18:00:00 16,8 10 6 23 12 WSW 1003,4 32 0,0
04.07.2020 17:00:00 16,9 12 7 26 14 WSW 1003,5 28 0,0
04.07.2020 16:00:00 17,3 16 8 32 18 WSW 1003,3 31 0,0
04.07.2020 15:00:00 17,6 13 7 28 15 SW 1003,2 37 0,0
04.07.2020 14:00:00 17,0 12 7 29 16 SW 1003,1 41 0,0
04.07.2020 13:00:00 16,2 14 8 46 25 WSW 1003,1 19 3,4
04.07.2020 12:00:00 16,3 16 9 38 20 SSW 1002,6 3,3 0,3
04.07.2020 11:00:00 16,5 14 8 38 20 SW 1002,4 13 0,0
04.07.2020 10:00:00 15,8 13 7 34 18 SW 1002,3 3,6 0,4
04.07.2020 09:00:00 15,9 17 9 34 18 SW 1002,0 17 0,0
04.07.2020 08:00:00 15,7 18 10 40 22 SW 1001,6 26 0,0
04.07.2020 07:00:00 15,4 16 9 36 20 SW 1001,5 6 0,0
04.07.2020 06:00:00 15,1 15 8 41 22 SSW 1001,7 12 1,0
04.07.2020 05:00:00 14,7 14 8 30 16 SSW 1002,3 7 3,0
04.07.2020 04:00:00 14,0 10 5 27 15 SSW 1003,3 4,4 2,5
04.07.2020 03:00:00 13,8 13 7 27 15 SW 1004,2 6 3,7
04.07.2020 02:00:00 13,6 9 5 26 14 SSW 1005,0 4,9 2,8
04.07.2020 01:00:00 13,8 12 6 26 14 SW 1006,0 9 0,8
04.07.2020 00:00:00 14,6 16 8 31 17 SW 1006,4 29 0,0
03.07.2020 23:00:00 14,6 11 6 26 14 SW 1006,4 43 1,2
03.07.2020 22:00:00 14,7 8 4 15 8 SE 1006,8 28 0,0
03.07.2020 21:00:00 14,7 6 4 21 12 SSE 1007,9 20 0,1
03.07.2020 20:00:00 15,3 11 6 28 15 S 1008,6 30 0,0
03.07.2020 19:00:00 16,1 12 6 29 16 SSW 1009,1 43 0,0
03.07.2020 18:00:00 16,3 15 8 29 16 SW 1009,4 43 0,0
03.07.2020 17:00:00 16,4 13 7 33 18 SSW 1009,8 39 0,0
03.07.2020 16:00:00 16,6 15 8 32 18 SSW 1010,1 34 0,0
03.07.2020 15:00:00 16,4 13 7 33 18 SSW 1010,2 38 0,0
03.07.2020 14:00:00 16,2 12 7 31 17 SW 1010,4 36 0,0
03.07.2020 13:00:00 16,2 17 9 31 17 WSW 1010,5 34 0,0
03.07.2020 12:00:00 15,2 14 8 29 16 SW 1010,4 38 0,0
03.07.2020 11:00:00 13,8 15 8 36 19 SW 1010,5 11 0,0
03.07.2020 10:00:00 14,8 16 9 30 16 WSW 1010,0 34 0,0
03.07.2020 09:00:00 14,9 19 10 33 18 W 1009,6 35 0,0
03.07.2020 08:00:00 14,5 18 10 31 17 W 1009,4 36 0,0
03.07.2020 07:00:00 14,1 15 8 34 18 W 1009,0 30 0,0
03.07.2020 06:00:00 13,9 16 8 27 15 W 1008,8 42 0,0
03.07.2020 05:00:00 13,7 12 7 26 14 W 1008,4 42 0,0
03.07.2020 04:00:00 13,7 14 8 34 18 WSW 1008,4 30 0,0
03.07.2020 03:00:00 13,9 14 7 27 14 WSW 1008,1 36 0,0
03.07.2020 02:00:00 13,7 14 8 28 15 WSW 1007,9 28 0,0
03.07.2020 01:00:00 13,7 14 8 35 19 WSW 1007,9 26 0,0
03.07.2020 00:00:00 14,0 18 10 32 18 WSW 1007,7 24 0,0
02.07.2020 23:00:00 14,3 18 10 41 22 WSW 1007,6 31 0,0
02.07.2020 22:00:00 14,7 18 10 40 21 W 1007,3 29 0,0
02.07.2020 21:00:00 15,8 20 11 45 24 W 1007,0 29 0,0
02.07.2020 20:00:00 16,4 25 14 49 27 W 1006,4 30 0,0
02.07.2020 19:00:00 16,8 24 13 46 25 WSW 1006,0 20 0,0
02.07.2020 18:00:00 17,5 26 14 49 27 WSW 1005,9 26 0,0
02.07.2020 17:00:00 17,6 25 13 45 24 WSW 1005,7 19 0,0
02.07.2020 16:00:00 18,2 23 13 48 26 W 1005,3 19 0,0
02.07.2020 15:00:00 18,0 26 14 55 30 WSW 1004,9 15 0,0
02.07.2020 14:00:00 17,4 25 14 49 26 WSW 1004,5 16 0,0
02.07.2020 13:00:00 17,2 26 14 46 25 WSW 1003,9 15 0,0
02.07.2020 12:00:00 16,5 25 13 44 24 WSW 1003,4 23 0,0
02.07.2020 11:00:00 16,7 19 11 41 22 WSW 1002,8 21 0,0
02.07.2020 10:00:00 15,9 19 11 37 20 WSW 1002,5 29 0,0
02.07.2020 09:00:00 15,6 20 11 36 19 WSW 1001,8 30 0,0
02.07.2020 08:00:00 15,5 17 9 33 18 WSW 1001,4 29 0,0
02.07.2020 07:00:00 14,9 19 10 33 18 WSW 1001,0 21 0,0
02.07.2020 06:00:00 15,0 19 10 33 18 WSW 1000,5 27 0,0
02.07.2020 05:00:00 15,1 12 6 28 15 WSW 1000,3 38 0,0
02.07.2020 04:00:00 15,3 16 8 28 15 WSW 1000,3 42 0,0
02.07.2020 03:00:00 15,6 11 6 22 12 WSW 1000,4 41 0,0
02.07.2020 02:00:00 15,7 5 3 17 9 SW 1000,4 42 0,0
02.07.2020 01:00:00 15,7 6 3 14 7 WSW 1000,6 42 0,0
02.07.2020 00:00:00 15,5 5 3 12 6 SSW 1000,8 40 0,0
01.07.2020 23:00:00 15,1 4 2 12 6 S 1000,6 42 0,0
01.07.2020 22:00:00 15,1 5 3 20 11 SSW 1000,8 30 0,5
01.07.2020 21:00:00 16,5 8 4 16 9 SSW 1000,8 16 0,1

tt = temperature
ff = wind speed
fx = gusts
dd = wind direction
ppp = reduced air pressure
vv = visibility
rr = precipitation

Next stations